• Join FlightAware (Why Join?)
  • Login
  • US Flag 
09:51AM EDT


 

Airport Tracker/Info


-or-


 

Live Flight TrackerFlight Track Log ✈ ASH2638 ✈ 04-Apr-2013 ✈ KPHX - KONT

Flight Track Log - Related Links

Times and Time Zones

All times are in EDT time to prevent confusion due to time zone crossing. See the ASH2638 flight status page for this flight to view local times or setup timezone preferences in your user account.

Time Position Orientation Groundspeed Altitude Reporting Facility
EDT Latitude Longitude Course Direction KTS MPH feet Rate Location/Type
05:38PM 33.4333 -112.0333 273° West 168 193 2,000  Level Phoenix TRACON
05:38PM 33.4308 -112.0467 257° West 162 186 2,200 1,440 Climbing Albuquerque Center
05:39PM 33.4086 -112.1331 253° West 233 268 3,900 2,040 Climbing Albuquerque Center
05:40PM 33.4028 -112.2236 266° West 281 323 6,500 2,520 Climbing Albuquerque Center
05:41PM 33.4350 -112.4221 273° West  Level FlightAware Approximate
05:41PM 33.4103 -112.3150 276° West 279 321 9,200  Level Albuquerque Center
05:42PM 33.4393 -112.5276 273° West  Level FlightAware Approximate
05:42PM 33.4189 -112.4125 276° West 292 336 11,000  Level Albuquerque Center
05:43PM 33.4435 -112.6330 273° West  Level FlightAware Approximate
05:43PM 33.4281 -112.5253 276° West 335 386 13,200  Level Albuquerque Center
05:45PM 33.4475 -112.7458 276° West 350 403 17,600 2,340 Climbing Los Angeles Center
05:45PM 33.4494 -112.7697 276° West 352 405 18,100 1,740 Climbing Albuquerque Center
05:46PM 33.4656 -112.8861 279° West 357 411 19,900 1,740 Climbing Albuquerque Center
05:47PM 33.4886 -113.0047 283° West 365 420 21,700 1,860 Climbing Albuquerque Center
05:48PM 33.5169 -113.1514 283° West 375 432 23,800 1,680 Climbing Albuquerque Center
05:49PM 33.5406 -113.2750 283° West 381 438 25,200 1,320 Climbing Albuquerque Center
05:51PM 33.5647 -113.4044 283° West 394 453 26,600 1,500 Climbing Albuquerque Center
05:52PM 33.5892 -113.5347 283° West 401 461 28,300 1,200 Climbing Albuquerque Center
05:53PM 33.6158 -113.6817 282° West 400 460 29,200 780 Climbing Albuquerque Center
05:54PM 33.6414 -113.8169 283° West 412 474 30,000 360 Climbing Albuquerque Center
05:55PM 33.6536 -113.9539 276° West 412 474 30,000  Level Albuquerque Center
05:56PM 33.6675 -114.0919 277° West 416 479 30,000 300 Level Albuquerque Center
05:57PM 33.6778 -114.2378 275° West 416 479 30,700 840 Climbing Albuquerque Center
05:58PM 33.6717 -114.3744 267° West 411 473 31,800 600 Climbing Albuquerque Center
05:59PM 33.6778 -114.5144 273° West 424 488 32,000 60 Climbing Albuquerque Center
06:00PM 33.6936 -114.6558 278° West 430 495 32,000  Level Los Angeles Center
06:01PM 33.7117 -114.8253 277° West 429 494 32,000  Level Los Angeles Center
06:02PM 33.7269 -114.9628 278° West 422 486 32,000  Level Los Angeles Center
06:03PM 33.7406 -115.1017 277° West 420 483 32,000  Level Los Angeles Center
06:04PM 33.7564 -115.2408 278° West 421 484 32,000 -300 Level Los Angeles Center
06:05PM 33.7697 -115.3806 277° West 422 486 31,400 -1,020 Descending Los Angeles Center
06:06PM 33.7869 -115.5592 277° West 448 516 30,000 -1,140 Descending Los Angeles Center
06:07PM 33.7992 -115.6769 277° West 448 516 29,100 -1,080 Descending Los Angeles Center
06:08PM 33.8153 -115.8458 277° West 426 490 27,800 -1,200 Descending Los Angeles Center
06:09PM 33.8283 -115.9797 277° West 409 471 26,700 -1,020 Descending Los Angeles Center
06:10PM 33.8397 -116.1078 276° West 393 452 25,700 -1,020 Descending Los Angeles Center
06:11PM 33.8525 -116.2364 277° West 389 448 24,600 -1,440 Descending Los Angeles Center
06:12PM 33.8669 -116.3886 277° West 384 442 22,700 -1,980 Descending Los Angeles Center
06:13PM 33.8750 -116.5108 275° West 368 423 20,600 -2,220 Descending Los Angeles Center
06:14PM 33.8794 -116.6289 273° West 356 410 18,200 -2,280 Descending Los Angeles Center
06:15PM 33.8853 -116.7436 274° West 348 400 15,900 -2,280 Descending Los Angeles Center
06:16PM 33.8931 -116.8536 275° West 336 387 13,500 -2,340 Descending Los Angeles Center
06:17PM 33.9328 -116.9750 292° West 327 376 11,100 -1,800 Descending Los Angeles Center
06:18PM 33.9500 -117.0500 285° West 278 320 10,100 -1,980 Descending Southern California TRACON
06:19PM 33.9833 -117.1500 292° West 283 326 7,200 -2,160 Descending Southern California TRACON
06:20PM 34.0167 -117.2167 301° West 259 298 5,800 -1,440 Descending Southern California TRACON
06:21PM 34.0333 -117.3167 281° West 231 266 4,400 -780 Descending Southern California TRACON
06:22PM 34.0500 -117.3667 292° West 198 228 4,300 -480 Descending Southern California TRACON
06:23PM 34.0500 -117.4333 270° West 173 199 3,500 -900 Descending Southern California TRACON
06:24PM 34.0500 -117.4833 270° West 146 168 2,600 -840 Descending Southern California TRACON
06:25PM 34.0500 -117.5333 270° West 150 173 1,900 -780 Descending Southern California TRACON
06:26PM 34.0500 -117.5833 270° West 145 167 1,100 -840 Descending Southern California TRACON